createdAt,value
2022-09-03T00:04:44.269Z,14.71
2022-09-03T00:10:10.486Z,14.46
2022-09-03T00:15:34.711Z,14.41
2022-09-03T00:20:59.579Z,14.47
2022-09-03T00:26:28.789Z,14.53
2022-09-03T00:31:57.204Z,14.61
2022-09-03T00:37:17.869Z,14.68
2022-09-03T00:43:15.679Z,14.78
2022-09-03T00:48:57.501Z,14.91
2022-09-03T00:54:38.326Z,14.93
2022-09-03T01:00:12.248Z,14.89
2022-09-03T01:05:46.995Z,14.83
2022-09-03T01:11:23.247Z,14.82
2022-09-03T01:17:10.752Z,14.75
2022-09-03T01:22:50.316Z,14.72
2022-09-03T01:28:20.632Z,14.68
2022-09-03T01:33:44.967Z,14.60
2022-09-03T01:39:10.566Z,14.61
2022-09-03T01:44:40.670Z,14.44
2022-09-03T01:50:34.777Z,14.25
2022-09-03T01:56:25.912Z,14.07
2022-09-03T02:01:50.798Z,14.00
2022-09-03T02:07:11.593Z,13.95
2022-09-03T02:12:34.996Z,13.95
2022-09-03T02:18:02.217Z,13.89
2022-09-03T02:23:27.517Z,13.81
2022-09-03T02:28:50.035Z,13.85
2022-09-03T02:34:10.603Z,13.93
2022-09-03T02:39:32.104Z,13.93
2022-09-03T02:45:09.444Z,13.82
2022-09-03T02:50:30.201Z,13.63
2022-09-03T02:55:50.994Z,13.50
2022-09-03T03:01:11.839Z,13.48
2022-09-03T03:06:40.600Z,13.46
2022-09-03T03:12:01.383Z,13.54
2022-09-03T03:17:21.946Z,13.60
2022-09-03T03:22:42.548Z,13.59
2022-09-03T03:28:05.218Z,13.54
2022-09-03T03:33:25.736Z,13.44
2022-09-03T03:38:46.751Z,13.32
2022-09-03T03:44:08.814Z,13.20
2022-09-03T03:49:29.717Z,13.10
2022-09-03T03:54:50.581Z,13.20
2022-09-03T04:00:12.958Z,13.15
2022-09-03T04:05:38.759Z,13.03
2022-09-03T04:11:02.784Z,12.81
2022-09-03T04:16:28.233Z,12.58
2022-09-03T04:21:48.823Z,12.78
2022-09-03T04:27:09.431Z,12.68
2022-09-03T04:32:48.800Z,12.69
2022-09-03T04:38:13.448Z,12.85
2022-09-03T04:43:34.442Z,12.91
2022-09-03T04:48:55.528Z,13.03
2022-09-03T04:54:16.150Z,13.20
2022-09-03T04:59:36.947Z,13.19
2022-09-03T05:04:57.698Z,13.17
2022-09-03T05:10:20.563Z,13.71
2022-09-03T05:15:45.494Z,13.71
2022-09-03T05:21:09.021Z,13.62
2022-09-03T05:26:32.306Z,14.17
2022-09-03T05:31:53.293Z,14.44
2022-09-03T05:37:14.241Z,14.53
2022-09-03T05:42:38.011Z,14.43
2022-09-03T05:48:02.813Z,14.40
2022-09-03T05:53:23.655Z,14.45
2022-09-03T05:58:50.024Z,14.58
2022-09-03T06:04:13.769Z,14.62
2022-09-03T06:09:34.839Z,14.53
2022-09-03T06:14:55.516Z,14.36
2022-09-03T06:20:17.321Z,14.49
2022-09-03T06:25:37.882Z,14.69
2022-09-03T06:30:59.774Z,15.11
2022-09-03T06:36:22.740Z,15.71
2022-09-03T06:41:44.916Z,16.07
2022-09-03T06:47:05.834Z,16.30
2022-09-03T06:52:26.904Z,16.34
2022-09-03T06:57:48.568Z,16.53
2022-09-03T07:03:13.638Z,16.56
2022-09-03T07:08:36.044Z,16.36
2022-09-03T07:13:58.231Z,16.49
2022-09-03T07:19:19.007Z,16.71
2022-09-03T07:24:39.812Z,16.76
2022-09-03T07:30:00.471Z,16.87
2022-09-03T07:35:21.678Z,16.99
2022-09-03T07:40:42.258Z,16.83
2022-09-03T07:46:03.212Z,16.83
2022-09-03T07:51:27.884Z,16.84
2022-09-03T07:56:48.827Z,17.01
2022-09-03T08:02:10.142Z,17.17
2022-09-03T08:07:31.289Z,17.09
2022-09-03T08:12:52.215Z,17.01
2022-09-03T08:18:13.997Z,17.31
2022-09-03T08:23:38.046Z,17.36
2022-09-03T08:28:59.459Z,17.35
2022-09-03T08:34:20.823Z,17.25
2022-09-03T08:39:41.763Z,17.47
2022-09-03T08:45:08.396Z,17.41
2022-09-03T08:50:37.390Z,17.57
2022-09-03T08:56:11.209Z,17.70
2022-09-03T09:01:55.226Z,17.91
2022-09-03T09:07:21.516Z,17.90
2022-09-03T09:12:46.497Z,17.85
2022-09-03T09:18:19.466Z,17.93
2022-09-03T09:23:47.801Z,17.99
2022-09-03T09:29:11.461Z,18.10
2022-09-03T09:34:37.573Z,18.16
2022-09-03T09:40:00.904Z,18.27
2022-09-03T09:45:23.318Z,18.54
2022-09-03T09:50:44.763Z,18.67
2022-09-03T09:56:05.892Z,18.73
2022-09-03T10:01:30.429Z,18.73
2022-09-03T10:07:03.420Z,18.63
2022-09-03T10:12:34.835Z,18.72
2022-09-03T10:18:01.251Z,18.92
2022-09-03T10:23:28.405Z,19.08
2022-09-03T10:28:55.913Z,19.09
2022-09-03T10:34:57.238Z,19.26
2022-09-03T10:40:42.707Z,19.43
2022-09-03T10:46:27.854Z,19.41
2022-09-03T10:51:52.856Z,19.59
2022-09-03T10:57:31.735Z,19.67
2022-09-03T11:03:07.809Z,19.84
2022-09-03T11:09:06.356Z,19.92
2022-09-03T11:14:46.966Z,19.85
2022-09-03T11:20:20.686Z,19.68
2022-09-03T11:25:54.780Z,19.66
2022-09-03T11:31:32.541Z,19.80
2022-09-03T11:37:06.184Z,19.93
2022-09-03T11:42:46.314Z,20.01
2022-09-03T11:48:36.395Z,20.15
2022-09-03T11:54:03.633Z,20.06
2022-09-03T11:59:26.483Z,20.08
2022-09-03T12:05:25.887Z,20.28
2022-09-03T12:11:09.799Z,20.35
2022-09-03T12:16:40.729Z,20.40
2022-09-03T12:22:04.270Z,20.30
2022-09-03T12:27:27.667Z,20.32
2022-09-03T12:32:48.940Z,20.52
2022-09-03T12:38:18.333Z,20.54
2022-09-03T12:43:40.796Z,20.37
2022-09-03T12:55:06.402Z,20.12
2022-09-03T13:00:30.643Z,20.00
2022-09-03T13:05:57.298Z,19.98
2022-09-03T13:11:23.186Z,20.12
2022-09-03T13:16:46.744Z,20.40
2022-09-03T13:22:38.828Z,20.48
2022-09-03T13:28:11.921Z,20.60
2022-09-03T13:33:40.776Z,20.51
2022-09-03T13:39:16.613Z,20.29
2022-09-03T13:44:46.844Z,20.34
2022-09-03T13:50:27.211Z,20.40
2022-09-03T13:55:52.991Z,20.45
2022-09-03T14:01:22.572Z,20.58
2022-09-03T14:06:47.071Z,20.68
2022-09-03T14:12:25.362Z,20.74
2022-09-03T14:18:15.127Z,20.55
2022-09-03T14:24:07.099Z,20.57
2022-09-03T14:29:34.163Z,20.58
2022-09-03T14:35:19.204Z,20.60
2022-09-03T14:40:52.316Z,20.69
2022-09-03T14:46:32.482Z,20.72
2022-09-03T14:52:03.680Z,20.87
2022-09-03T14:57:39.488Z,20.86
2022-09-03T15:03:02.897Z,20.90
2022-09-03T15:08:36.408Z,20.81
2022-09-03T15:14:22.514Z,20.70
2022-09-03T15:20:02.177Z,20.56
2022-09-03T15:25:52.512Z,20.48
2022-09-03T15:31:39.204Z,20.55
2022-09-03T15:37:07.272Z,20.70
2022-09-03T15:42:30.168Z,20.81
2022-09-03T15:47:56.318Z,20.83
2022-09-03T15:53:36.577Z,20.89
2022-09-03T15:59:07.903Z,20.92
2022-09-03T16:05:06.022Z,20.88
2022-09-03T16:10:54.790Z,20.85
2022-09-03T16:16:56.537Z,20.79
2022-09-03T16:22:33.240Z,20.67
2022-09-03T16:28:15.724Z,20.69
2022-09-03T16:34:05.220Z,20.64
2022-09-03T16:39:38.165Z,20.63
2022-09-03T16:45:15.435Z,20.58
2022-09-03T16:51:04.434Z,20.56
2022-09-03T16:56:43.254Z,20.43
2022-09-03T17:02:40.673Z,20.37
2022-09-03T17:08:40.564Z,20.40
2022-09-03T17:14:01.392Z,20.36
2022-09-03T17:19:39.321Z,20.30
2022-09-03T17:25:05.999Z,20.21
2022-09-03T17:30:43.115Z,20.01
2022-09-03T17:36:27.433Z,19.87
2022-09-03T17:41:54.984Z,19.78
2022-09-03T17:47:22.108Z,19.54
2022-09-03T17:52:55.650Z,19.39
2022-09-03T17:58:39.872Z,19.33
2022-09-03T18:04:34.220Z,19.40
2022-09-03T18:10:07.079Z,19.36
2022-09-03T18:15:37.777Z,19.32
2022-09-03T18:21:26.380Z,19.31
2022-09-03T18:27:16.157Z,19.25
2022-09-03T18:32:55.284Z,19.25
2022-09-03T18:38:42.716Z,19.27
2022-09-03T18:44:28.099Z,19.24
2022-09-03T18:50:32.483Z,19.13
2022-09-03T18:56:53.977Z,19.10
2022-09-03T19:02:48.480Z,19.12
2022-09-03T19:08:38.745Z,19.08
2022-09-03T19:14:24.612Z,18.96
2022-09-03T19:20:13.170Z,18.85
2022-09-03T19:25:52.131Z,18.69
2022-09-03T19:31:53.965Z,18.72
2022-09-03T19:37:50.022Z,18.74
2022-09-03T19:43:57.259Z,18.70
2022-09-03T19:49:51.614Z,18.72
2022-09-03T19:55:39.523Z,18.73
2022-09-03T20:01:19.481Z,18.71
2022-09-03T20:06:58.457Z,18.67
2022-09-03T20:12:22.709Z,18.72
2022-09-03T20:18:06.098Z,18.67
2022-09-03T20:23:44.943Z,18.58
2022-09-03T20:29:29.018Z,18.57
2022-09-03T20:35:04.958Z,18.43
2022-09-03T20:41:03.786Z,18.28
2022-09-03T20:46:45.715Z,18.23
2022-09-03T20:52:18.619Z,18.13
2022-09-03T20:57:53.569Z,18.15
2022-09-03T21:03:14.461Z,18.15
2022-09-03T21:08:53.635Z,18.15
2022-09-03T21:14:33.568Z,18.17
2022-09-03T21:20:22.593Z,18.02
2022-09-03T21:25:53.036Z,17.94
2022-09-03T21:31:38.515Z,17.92
2022-09-03T21:37:04.682Z,17.77
2022-09-03T21:42:31.761Z,17.85
2022-09-03T21:47:58.969Z,17.79
2022-09-03T21:53:42.476Z,17.75
2022-09-03T21:59:41.491Z,17.82
2022-09-03T22:05:04.384Z,17.86
2022-09-03T22:10:53.199Z,17.90
2022-09-03T22:16:33.155Z,17.95
2022-09-03T22:22:03.071Z,17.90
2022-09-03T22:27:30.096Z,17.85
2022-09-03T22:33:22.538Z,17.77
2022-09-03T22:38:43.249Z,17.73
2022-09-03T22:44:25.902Z,17.77
2022-09-03T22:50:29.658Z,17.77
2022-09-03T22:56:02.410Z,17.79
2022-09-03T23:01:30.777Z,17.82
2022-09-03T23:07:02.903Z,17.85
2022-09-03T23:12:33.399Z,17.80
2022-09-03T23:18:05.555Z,17.85
2022-09-03T23:23:31.566Z,17.88
2022-09-03T23:29:03.450Z,17.79
2022-09-03T23:34:25.724Z,17.57
2022-09-03T23:40:04.890Z,17.43
2022-09-03T23:45:40.781Z,17.41
2022-09-03T23:51:25.981Z,17.48
2022-09-03T23:57:03.230Z,17.46
